Tashkent South Airport
UTTT : now visible

Airfield :











YOU CAN JOIN US ON...

 
LOGIN :

Register | Disclaimer

   EN    FR    IT 

 









Legend :    VFR   Marginal VFR   IFR   Intensive IFR   Very Intensive IFR
Visi :
Ceiling :
>= 8 km
>= 3000ft
5 to 8 km
1000 to 3000 ft
1500m to 5 km
500 to 1000 ft
800 to 1500m
200 to 500 ft
< 800m
< 200 ft
Symbols :   Thunderstorms  Fog  Heavy snow  Heavy precipitations  Wind > 20 kt






- Airport Elevation : 1417 ft
- IATA code : TAS


UTTT - Tashkent South

CURRENT METAR :
  • 221300Z 20006KT 160V230 4000 BR BKN010 01/M02 Q1029 R26R/29//50 NOSIG

EXPIRED METARs :
  • 221230Z 19006KT 150V220 4000 BR OVC012 01/M01 Q1029 R26R/29//50 NOSIG
  • 221200Z 17008KT 130V190 4000 BR OVC018 01/M01 Q1029 R08R/29//50 NOSIG
  • 221130Z 17008KT 4000 BR OVC018 01/M00 Q1029 R08R/29//50 NOSIG
  • 221100Z 18008KT 4000 BR OVC009 01/M00 Q1029 R08R/29//50 NOSIG
  • 221030Z 18008KT 4000 BR BKN010 01/M00 Q1029 R08R/29//50 NOSIG

TAF TAF UTTT
Valid from the 22 at 12:00 until the 23 at 12:00 UTC


221100Z 2212/2312 30010KT 4000 BR BKN007 FEW020CB OVC100
TEMPO 2212/2218 1500 BR
TEMPO 2218/2303 VRB02KT 0800 FZFG VV003



MET'MAP, your aeronautical weather chart ! - Copyright ORBIFLY December 2007 - Disclaimer

ORBIFLY MET'MAP TEAM :

Programming & Development : Alexandra Zaïnal
Concept & original design : Baudouin d'Aumeries
Assistance for programming : Marc-Olivier Méhu
Technical & hardware support : Manuel Goepfert

Contact : metmap@orbifly.com




SOURCES & CREDITS :

   NOAA       Earth
Advisory